createdAt,value
2014-07-22T00:00:17.917Z,100918
2014-07-22T00:00:36.245Z,100918
2014-07-22T00:00:54.573Z,100912
2014-07-22T00:01:12.904Z,100915
2014-07-22T00:01:31.232Z,100912
2014-07-22T00:01:49.561Z,100918
2014-07-22T00:02:07.889Z,100909
2014-07-22T00:02:26.218Z,100915
2014-07-22T00:02:44.546Z,100912
2014-07-22T00:03:02.874Z,100924
2014-07-22T00:03:21.204Z,100915
2014-07-22T00:03:39.532Z,100915
2014-07-22T00:03:57.860Z,100924
2014-07-22T00:04:16.191Z,100904
2014-07-22T00:04:34.519Z,100924
2014-07-22T00:04:52.847Z,100915
2014-07-22T00:05:11.175Z,100915
2014-07-22T00:05:29.505Z,100910
2014-07-22T00:05:47.833Z,100918
2014-07-22T00:06:06.161Z,100918
2014-07-22T00:06:24.491Z,100916
2014-07-22T00:06:42.820Z,100924
2014-07-22T00:07:01.148Z,100913
2014-07-22T00:07:19.476Z,100916
2014-07-22T00:07:37.807Z,100907
2014-07-22T00:07:56.135Z,100913
2014-07-22T00:08:14.463Z,100913
2014-07-22T00:08:32.792Z,100913
2014-07-22T00:08:51.120Z,100907
2014-07-22T00:09:09.449Z,100913
2014-07-22T00:09:27.779Z,100918
2014-07-22T00:09:46.107Z,100915
2014-07-22T00:10:04.435Z,100918
2014-07-22T00:10:22.763Z,100912
2014-07-22T00:10:41.093Z,100909
2014-07-22T00:10:59.421Z,100907
2014-07-22T00:11:17.953Z,100909
2014-07-22T00:11:36.080Z,100912
2014-07-22T00:11:54.408Z,100915
2014-07-22T00:12:12.736Z,100918
2014-07-22T00:12:31.066Z,100915
2014-07-22T00:12:49.394Z,100909
2014-07-22T00:13:07.722Z,100904
2014-07-22T00:13:26.050Z,100912
2014-07-22T00:13:44.380Z,100918
2014-07-22T00:14:02.709Z,100921
2014-07-22T00:14:21.037Z,100921
2014-07-22T00:14:39.367Z,100904
2014-07-22T00:14:57.695Z,100910
2014-07-22T00:15:16.023Z,100913
2014-07-22T00:15:34.354Z,100918
2014-07-22T00:15:52.682Z,100924
2014-07-22T00:16:11.010Z,100912
2014-07-22T00:16:29.339Z,100918
2014-07-22T00:16:47.668Z,100913
2014-07-22T00:17:05.996Z,100913
2014-07-22T00:17:24.324Z,100918
2014-07-22T00:17:42.654Z,100918
2014-07-22T00:18:00.982Z,100918
2014-07-22T00:18:19.310Z,100921
2014-07-22T00:18:37.625Z,100918
2014-07-22T00:18:55.969Z,100924
2014-07-22T00:19:14.297Z,100921
2014-07-22T00:19:32.625Z,100915
2014-07-22T00:19:50.955Z,100912
2014-07-22T00:20:09.283Z,100912
2014-07-22T00:20:27.611Z,100921
2014-07-22T00:20:45.941Z,100915
2014-07-22T00:21:04.269Z,100918
2014-07-22T00:21:22.598Z,100909
2014-07-22T00:21:40.912Z,100920
2014-07-22T00:21:59.256Z,100915
2014-07-22T00:22:17.584Z,100923
2014-07-22T00:22:35.928Z,100918
2014-07-22T00:22:54.242Z,100917
2014-07-22T00:23:12.570Z,100926
2014-07-22T00:23:30.898Z,100917
2014-07-22T00:23:49.229Z,100929
2014-07-22T00:24:07.557Z,100923
2014-07-22T00:24:25.885Z,100923
2014-07-22T00:24:44.215Z,100923
2014-07-22T00:25:02.543Z,100929
2014-07-22T00:25:20.871Z,100920
2014-07-22T00:25:39.199Z,100920
2014-07-22T00:25:57.514Z,100923
2014-07-22T00:26:15.842Z,100917
2014-07-22T00:26:34.170Z,100923
2014-07-22T00:26:52.500Z,100926
2014-07-22T00:27:10.828Z,100920
2014-07-22T00:27:29.156Z,100926
2014-07-22T00:27:47.486Z,100923
2014-07-22T00:28:05.798Z,100926
2014-07-22T00:28:24.126Z,100920
2014-07-22T00:28:42.454Z,100917
2014-07-22T00:29:00.785Z,100926
2014-07-22T00:29:19.114Z,100932
2014-07-22T00:29:37.442Z,100926
2014-07-22T00:29:55.772Z,100917
2014-07-22T00:30:14.100Z,100923
2014-07-22T00:30:32.428Z,100920
2014-07-22T00:30:50.757Z,100920
2014-07-22T00:31:09.085Z,100915
2014-07-22T00:31:27.398Z,100926
2014-07-22T00:31:45.742Z,100920
2014-07-22T00:32:04.073Z,100917
2014-07-22T00:32:22.401Z,100923
2014-07-22T00:32:40.729Z,100923
2014-07-22T00:32:59.059Z,100923
2014-07-22T00:33:17.387Z,100912
2014-07-22T00:33:35.715Z,100915
2014-07-22T00:33:54.028Z,100926
2014-07-22T00:34:12.357Z,100921
2014-07-22T00:34:30.685Z,100926
2014-07-22T00:34:49.013Z,100921
2014-07-22T00:35:07.344Z,100926
2014-07-22T00:35:25.672Z,100921
2014-07-22T00:35:44.001Z,100921
2014-07-22T00:36:02.329Z,100918
2014-07-22T00:36:20.659Z,100918
2014-07-22T00:36:38.987Z,100918
2014-07-22T00:36:57.315Z,100921
2014-07-22T00:37:15.661Z,100926
2014-07-22T00:37:33.973Z,100923
2014-07-22T00:37:52.301Z,100918
2014-07-22T00:38:10.632Z,100920
2014-07-22T00:38:28.975Z,100915
2014-07-22T00:38:47.303Z,100923
2014-07-22T00:39:05.632Z,100920
2014-07-22T00:39:23.962Z,100920
2014-07-22T00:39:42.290Z,100920
2014-07-22T00:40:00.618Z,100920
2014-07-22T00:40:18.948Z,100926
2014-07-22T00:40:37.276Z,100923
2014-07-22T00:40:55.604Z,100926
2014-07-22T00:41:13.934Z,100920
2014-07-22T00:41:32.263Z,100923
2014-07-22T00:41:50.591Z,100920
2014-07-22T00:42:08.919Z,100915
2014-07-22T00:42:27.249Z,100920
2014-07-22T00:42:45.577Z,100923
2014-07-22T00:43:03.905Z,100923
2014-07-22T00:43:22.235Z,100929
2014-07-22T00:43:40.563Z,100923
2014-07-22T00:43:58.892Z,100926
2014-07-22T00:44:17.221Z,100929
2014-07-22T00:44:35.549Z,100926
2014-07-22T00:44:53.861Z,100932
2014-07-22T00:45:12.191Z,100926
2014-07-22T00:45:30.520Z,100917
2014-07-22T00:45:48.848Z,100920
2014-07-22T00:46:07.176Z,100932
2014-07-22T00:46:25.506Z,100920
2014-07-22T00:46:43.834Z,100929
2014-07-22T00:47:02.162Z,100932
2014-07-22T00:47:20.492Z,100923
2014-07-22T00:47:38.820Z,100932
2014-07-22T00:47:57.149Z,100918
2014-07-22T00:48:15.479Z,100917
2014-07-22T00:48:33.807Z,100920
2014-07-22T00:48:52.135Z,100926
2014-07-22T00:49:10.465Z,100929
2014-07-22T00:49:28.793Z,100929
2014-07-22T00:49:47.121Z,100932
2014-07-22T00:50:05.449Z,100923
2014-07-22T00:50:23.780Z,100929
2014-07-22T00:50:42.108Z,100932
2014-07-22T00:51:00.436Z,100929
2014-07-22T00:51:18.766Z,100935
2014-07-22T00:51:37.094Z,100926
2014-07-22T00:51:55.422Z,100929
2014-07-22T00:52:13.751Z,100940
2014-07-22T00:52:32.079Z,100923
2014-07-22T00:52:50.408Z,100923
2014-07-22T00:53:08.736Z,100917
2014-07-22T00:53:27.067Z,100917
2014-07-22T00:53:45.379Z,100932
2014-07-22T00:54:03.707Z,100920
2014-07-22T00:54:22.053Z,100923
2014-07-22T00:54:40.381Z,100929
2014-07-22T00:54:58.709Z,100932
2014-07-22T00:55:17.039Z,100923
2014-07-22T00:55:35.367Z,100926
2014-07-22T00:55:53.695Z,100934
2014-07-22T00:56:12.025Z,100940
2014-07-22T00:56:30.353Z,100932
2014-07-22T00:56:48.681Z,100932
2014-07-22T00:57:07.009Z,100943
2014-07-22T00:57:25.339Z,100934
2014-07-22T00:57:43.668Z,100926
2014-07-22T00:58:01.996Z,100937
2014-07-22T00:58:20.326Z,100943
2014-07-22T00:58:38.654Z,100940
2014-07-22T00:58:56.982Z,100926
2014-07-22T00:59:15.328Z,100932
2014-07-22T00:59:33.656Z,100929
2014-07-22T00:59:51.984Z,100938
2014-07-22T01:00:10.312Z,100929
2014-07-22T01:00:28.642Z,100932
2014-07-22T01:00:46.955Z,100938
2014-07-22T01:01:05.299Z,100932
2014-07-22T01:01:23.629Z,100941
2014-07-22T01:01:41.957Z,100935
2014-07-22T01:02:00.285Z,100926
2014-07-22T01:02:18.615Z,100926
2014-07-22T01:02:36.943Z,100935
2014-07-22T01:02:55.256Z,100937
2014-07-22T01:03:13.584Z,100940
2014-07-22T01:03:31.914Z,100932
2014-07-22T01:03:50.242Z,100943
2014-07-22T01:04:08.570Z,100931
2014-07-22T01:04:26.900Z,100943
2014-07-22T01:04:45.228Z,100937
2014-07-22T01:05:03.557Z,100946
2014-07-22T01:05:21.887Z,100940
2014-07-22T01:05:40.199Z,100940
2014-07-22T01:05:58.527Z,100931
2014-07-22T01:06:16.855Z,100928
2014-07-22T01:06:35.201Z,100928
2014-07-22T01:06:53.514Z,100928
2014-07-22T01:07:11.857Z,100936
2014-07-22T01:07:30.171Z,100928
2014-07-22T01:07:48.515Z,100933
2014-07-22T01:08:06.843Z,100925
2014-07-22T01:08:25.173Z,100931
2014-07-22T01:08:43.501Z,100942
2014-07-22T01:09:01.829Z,100931
2014-07-22T01:09:20.157Z,100925
2014-07-22T01:09:38.488Z,100934
2014-07-22T01:09:56.817Z,100937
2014-07-22T01:10:15.145Z,100922
2014-07-22T01:10:33.475Z,100931
2014-07-22T01:10:51.803Z,100940
2014-07-22T01:11:10.131Z,100931
2014-07-22T01:11:28.446Z,100928
2014-07-22T01:11:46.774Z,100931
2014-07-22T01:12:05.102Z,100928
2014-07-22T01:12:23.430Z,100934
2014-07-22T01:12:41.759Z,100937
2014-07-22T01:13:00.087Z,100934
2014-07-22T01:13:18.415Z,100934
2014-07-22T01:13:36.730Z,100939
2014-07-22T01:13:55.058Z,100942
2014-07-22T01:14:13.386Z,100928
2014-07-22T01:14:31.714Z,100937
2014-07-22T01:14:50.045Z,100928
2014-07-22T01:15:08.373Z,100934
2014-07-22T01:15:26.702Z,100931
2014-07-22T01:15:45.032Z,100936
2014-07-22T01:16:03.360Z,100933
2014-07-22T01:16:21.688Z,100934
2014-07-22T01:16:40.016Z,100936
2014-07-22T01:16:58.346Z,100931
2014-07-22T01:17:16.674Z,100937
2014-07-22T01:17:35.002Z,100917
2014-07-22T01:17:53.333Z,100937
2014-07-22T01:18:11.661Z,100934
2014-07-22T01:18:29.989Z,100928
2014-07-22T01:18:48.301Z,100928
2014-07-22T01:19:06.646Z,100937
2014-07-22T01:19:24.974Z,100934
2014-07-22T01:19:43.302Z,100940
2014-07-22T01:20:01.618Z,100931
2014-07-22T01:20:19.962Z,100931
2014-07-22T01:20:38.290Z,100934
2014-07-22T01:20:56.620Z,100940
2014-07-22T01:21:14.948Z,100940
2014-07-22T01:21:33.276Z,100942
2014-07-22T01:21:51.604Z,100928
2014-07-22T01:22:09.918Z,100917
2014-07-22T01:22:28.246Z,100931
2014-07-22T01:22:46.574Z,100925
2014-07-22T01:23:04.904Z,100928
2014-07-22T01:23:23.232Z,100925
2014-07-22T01:23:41.560Z,100920
2014-07-22T01:23:59.891Z,100934
2014-07-22T01:24:18.220Z,100937
2014-07-22T01:24:36.548Z,100928
2014-07-22T01:24:54.876Z,100939
2014-07-22T01:25:13.206Z,100934
2014-07-22T01:25:31.534Z,100931
2014-07-22T01:25:49.862Z,100931
2014-07-22T01:26:08.192Z,100937
2014-07-22T01:26:26.520Z,100928
2014-07-22T01:26:44.849Z,100928
2014-07-22T01:27:03.178Z,100928
2014-07-22T01:27:21.506Z,100922
2014-07-22T01:27:39.834Z,100919
2014-07-22T01:27:58.146Z,100931
2014-07-22T01:28:16.477Z,100931
2014-07-22T01:28:34.805Z,100931
2014-07-22T01:28:53.133Z,100933
2014-07-22T01:29:11.463Z,100934
2014-07-22T01:29:29.791Z,100931
2014-07-22T01:29:48.119Z,100928
2014-07-22T01:30:06.449Z,100934
2014-07-22T01:30:24.777Z,100928
2014-07-22T01:30:43.106Z,100931
2014-07-22T01:31:01.434Z,100933
2014-07-22T01:31:19.764Z,100930
2014-07-22T01:31:38.092Z,100939
2014-07-22T01:31:56.420Z,100928
2014-07-22T01:32:14.736Z,100933
2014-07-22T01:32:33.064Z,100930
2014-07-22T01:32:51.392Z,100936
2014-07-22T01:33:09.721Z,100933
2014-07-22T01:33:28.049Z,100936
2014-07-22T01:33:46.377Z,100936
2014-07-22T01:34:04.705Z,100930
2014-07-22T01:34:23.035Z,100930
2014-07-22T01:34:41.364Z,100922
2014-07-22T01:34:59.692Z,100933
2014-07-22T01:35:18.006Z,100924
2014-07-22T01:35:36.350Z,100939
2014-07-22T01:35:54.678Z,100930
2014-07-22T01:36:13.008Z,100933
2014-07-22T01:36:31.336Z,100936
2014-07-22T01:36:49.649Z,100930
2014-07-22T01:37:07.993Z,100927
2014-07-22T01:37:26.323Z,100930
2014-07-22T01:37:44.635Z,100922
2014-07-22T01:38:02.963Z,100927
2014-07-22T01:38:21.293Z,100933
2014-07-22T01:38:39.622Z,100939
2014-07-22T01:38:57.950Z,100933
2014-07-22T01:39:16.279Z,100939
2014-07-22T01:39:34.607Z,100936
2014-07-22T01:39:52.935Z,100927
2014-07-22T01:40:11.265Z,100925
2014-07-22T01:40:29.593Z,100924
2014-07-22T01:40:47.921Z,100930
2014-07-22T01:41:06.250Z,100930
2014-07-22T01:41:24.580Z,100933
2014-07-22T01:41:42.908Z,100927
2014-07-22T01:42:01.236Z,100927
2014-07-22T01:42:19.566Z,100933
2014-07-22T01:42:37.894Z,100930
2014-07-22T01:42:56.222Z,100927
2014-07-22T01:43:14.553Z,100930
2014-07-22T01:43:32.882Z,100927
2014-07-22T01:43:51.210Z,100927
2014-07-22T01:44:09.522Z,100925
2014-07-22T01:44:27.851Z,100942
2014-07-22T01:44:46.179Z,100933
2014-07-22T01:45:04.508Z,100928
2014-07-22T01:45:22.839Z,100933
2014-07-22T01:45:41.167Z,100930
2014-07-22T01:45:59.495Z,100936
2014-07-22T01:46:17.823Z,100927
2014-07-22T01:46:36.153Z,100924
2014-07-22T01:46:54.481Z,100933
2014-07-22T01:47:12.809Z,100936
2014-07-22T01:47:31.140Z,100933
2014-07-22T01:47:49.468Z,100927
2014-07-22T01:48:07.796Z,100930
2014-07-22T01:48:26.126Z,100939
2014-07-22T01:48:44.454Z,100927
2014-07-22T01:49:02.782Z,100938
2014-07-22T01:49:21.110Z,100941
2014-07-22T01:49:39.439Z,100933
2014-07-22T01:49:57.768Z,100930
2014-07-22T01:50:16.096Z,100933
2014-07-22T01:50:34.426Z,100932
2014-07-22T01:50:52.738Z,100927
2014-07-22T01:51:11.066Z,100938
2014-07-22T01:51:29.398Z,100921
2014-07-22T01:51:47.726Z,100938
2014-07-22T01:52:06.054Z,100929
2014-07-22T01:52:24.382Z,100924
2014-07-22T01:52:42.712Z,100930
2014-07-22T01:53:01.040Z,100932
2014-07-22T01:53:19.368Z,100938
2014-07-22T01:53:37.697Z,100938
2014-07-22T01:53:56.026Z,100929
2014-07-22T01:54:14.354Z,100932
2014-07-22T01:54:32.684Z,100938
2014-07-22T01:54:51.012Z,100938
2014-07-22T01:55:09.340Z,100946
2014-07-22T01:55:27.653Z,100938
2014-07-22T01:55:45.983Z,100932
2014-07-22T01:56:04.311Z,100932
2014-07-22T01:56:22.639Z,100933
2014-07-22T01:56:40.969Z,100941
2014-07-22T01:56:59.297Z,100930
2014-07-22T01:57:17.625Z,100932
2014-07-22T01:57:35.955Z,100935
2014-07-22T01:57:54.284Z,100921
2014-07-22T01:58:12.612Z,100933
2014-07-22T01:58:30.940Z,100930
2014-07-22T01:58:49.270Z,100933
2014-07-22T01:59:07.598Z,100930
2014-07-22T01:59:25.926Z,100938
2014-07-22T01:59:44.256Z,100936
2014-07-22T02:00:02.584Z,100927
2014-07-22T02:00:20.913Z,100930
2014-07-22T02:00:39.243Z,100933
2014-07-22T02:00:57.555Z,100933
2014-07-22T02:01:15.883Z,100927
2014-07-22T02:01:34.415Z,100930
2014-07-22T02:01:52.557Z,100921
2014-07-22T02:02:10.885Z,100927
2014-07-22T02:02:29.213Z,100930
2014-07-22T02:02:47.528Z,100924
2014-07-22T02:03:05.856Z,100927
2014-07-22T02:03:24.184Z,100935
2014-07-22T02:03:42.514Z,100929
2014-07-22T02:04:00.842Z,100918
2014-07-22T02:04:19.171Z,100930
2014-07-22T02:04:37.499Z,100924
2014-07-22T02:04:55.829Z,100930
2014-07-22T02:05:14.157Z,100927
2014-07-22T02:05:32.485Z,100933
2014-07-22T02:05:50.815Z,100933
2014-07-22T02:06:09.143Z,100932
2014-07-22T02:06:27.471Z,100930
2014-07-22T02:06:45.802Z,100927
2014-07-22T02:07:04.130Z,100927
2014-07-22T02:07:22.458Z,100924
2014-07-22T02:07:40.786Z,100938
2014-07-22T02:07:59.116Z,100932
2014-07-22T02:08:17.429Z,100921
2014-07-22T02:08:35.757Z,100927
2014-07-22T02:08:54.087Z,100932
2014-07-22T02:09:12.415Z,100924
2014-07-22T02:09:30.743Z,100932
2014-07-22T02:09:49.073Z,100927
2014-07-22T02:10:07.401Z,100927
2014-07-22T02:10:25.729Z,100933
2014-07-22T02:10:44.042Z,100933
2014-07-22T02:11:02.388Z,100918
2014-07-22T02:11:20.716Z,100927
2014-07-22T02:11:39.028Z,100932
2014-07-22T02:11:57.358Z,100935
2014-07-22T02:12:15.687Z,100938
2014-07-22T02:12:34.015Z,100935
2014-07-22T02:12:52.343Z,100940
2014-07-22T02:13:10.673Z,100929
2014-07-22T02:13:28.985Z,100935
2014-07-22T02:13:47.314Z,100937
2014-07-22T02:14:05.644Z,100932
2014-07-22T02:14:23.972Z,100932
2014-07-22T02:14:42.300Z,100929
2014-07-22T02:15:00.628Z,100938
2014-07-22T02:15:18.942Z,100929
2014-07-22T02:15:37.270Z,100935
2014-07-22T02:15:55.598Z,100926
2014-07-22T02:16:13.929Z,100929
2014-07-22T02:16:32.257Z,100935
2014-07-22T02:16:50.585Z,100932
2014-07-22T02:17:08.913Z,100932
2014-07-22T02:17:27.227Z,100929
2014-07-22T02:17:45.555Z,100935
2014-07-22T02:18:03.883Z,100929
2014-07-22T02:18:22.213Z,100929
2014-07-22T02:18:40.541Z,100929
2014-07-22T02:18:58.854Z,100935
2014-07-22T02:19:17.184Z,100929
2014-07-22T02:19:35.512Z,100932
2014-07-22T02:19:53.840Z,100932
2014-07-22T02:20:12.170Z,100935
2014-07-22T02:20:30.498Z,100935
2014-07-22T02:20:48.827Z,100923
2014-07-22T02:21:07.155Z,100929
2014-07-22T02:21:25.485Z,100926
2014-07-22T02:21:43.813Z,100932
2014-07-22T02:22:02.141Z,100926
2014-07-22T02:22:20.471Z,100926
2014-07-22T02:22:38.799Z,100921
2014-07-22T02:22:57.127Z,100929
2014-07-22T02:23:15.459Z,100930
2014-07-22T02:23:33.787Z,100924
2014-07-22T02:23:52.115Z,100932
2014-07-22T02:24:10.443Z,100935
2014-07-22T02:24:28.773Z,100935
2014-07-22T02:24:47.101Z,100932
2014-07-22T02:25:05.429Z,100927
2014-07-22T02:25:23.758Z,100929
2014-07-22T02:25:42.087Z,100926
2014-07-22T02:26:00.415Z,100932
2014-07-22T02:26:18.745Z,100932
2014-07-22T02:26:37.073Z,100932
2014-07-22T02:26:55.401Z,100935
2014-07-22T02:27:13.729Z,100935
2014-07-22T02:27:32.059Z,100926
2014-07-22T02:27:50.387Z,100929
2014-07-22T02:28:08.716Z,100932
2014-07-22T02:28:27.047Z,100926
2014-07-22T02:28:45.375Z,100935
2014-07-22T02:29:03.703Z,100938
2014-07-22T02:29:22.031Z,100923
2014-07-22T02:29:40.361Z,100929
2014-07-22T02:29:58.689Z,100926
2014-07-22T02:30:17.017Z,100932
2014-07-22T02:30:35.347Z,100935
2014-07-22T02:30:53.690Z,100938
2014-07-22T02:31:12.018Z,100944
2014-07-22T02:31:30.350Z,100935
2014-07-22T02:31:48.678Z,100932
2014-07-22T02:32:07.006Z,100932
2014-07-22T02:32:25.334Z,100932
2014-07-22T02:32:43.663Z,100946
2014-07-22T02:33:01.991Z,100941
2014-07-22T02:33:20.319Z,100941
2014-07-22T02:33:38.649Z,100941
2014-07-22T02:33:56.978Z,100932
2014-07-22T02:34:15.306Z,100944
2014-07-22T02:34:33.636Z,100932
2014-07-22T02:34:51.964Z,100938
2014-07-22T02:35:10.292Z,100935
2014-07-22T02:35:28.620Z,100941
2014-07-22T02:35:46.950Z,100944
2014-07-22T02:36:05.278Z,100947
2014-07-22T02:36:23.607Z,100941
2014-07-22T02:36:41.937Z,100938
2014-07-22T02:37:00.280Z,100952
2014-07-22T02:37:18.609Z,100947
2014-07-22T02:37:36.939Z,100944
2014-07-22T02:37:55.267Z,100947
2014-07-22T02:38:13.595Z,100941
2014-07-22T02:38:31.923Z,100944
2014-07-22T02:38:50.253Z,100935
2014-07-22T02:39:08.581Z,100938
2014-07-22T02:39:26.909Z,100949
2014-07-22T02:39:45.239Z,100947
2014-07-22T02:40:03.567Z,100944
2014-07-22T02:40:21.895Z,100955
2014-07-22T02:40:40.225Z,100944
2014-07-22T02:40:58.553Z,100946
2014-07-22T02:41:16.881Z,100938
2014-07-22T02:41:35.209Z,100941
2014-07-22T02:41:53.556Z,100946
2014-07-22T02:42:11.884Z,100944
2014-07-22T02:42:30.212Z,100949
2014-07-22T02:42:48.542Z,100949
2014-07-22T02:43:06.871Z,100949
2014-07-22T02:43:25.199Z,100944
2014-07-22T02:43:43.528Z,100952
2014-07-22T02:44:01.872Z,100949
2014-07-22T02:44:20.200Z,100944
2014-07-22T02:44:38.528Z,100947
2014-07-22T02:44:56.859Z,100938
2014-07-22T02:45:15.203Z,100949
2014-07-22T02:45:33.531Z,100952
2014-07-22T02:45:51.860Z,100944
2014-07-22T02:46:10.188Z,100950
2014-07-22T02:46:28.532Z,100955
2014-07-22T02:46:46.862Z,100944
2014-07-22T02:47:05.206Z,100949
2014-07-22T02:47:23.534Z,100950
2014-07-22T02:47:41.862Z,100941
2014-07-22T02:48:00.193Z,100952
2014-07-22T02:48:18.521Z,100947
2014-07-22T02:48:36.849Z,100952
2014-07-22T02:48:55.195Z,100958
2014-07-22T02:49:13.523Z,100952
2014-07-22T02:49:31.851Z,100952
2014-07-22T02:49:50.196Z,100958
2014-07-22T02:50:08.524Z,100949
2014-07-22T02:50:26.852Z,100955
2014-07-22T02:50:45.196Z,100941
2014-07-22T02:51:03.526Z,100955
2014-07-22T02:51:21.854Z,100961
2014-07-22T02:51:40.182Z,100955
2014-07-22T02:51:58.513Z,100949
2014-07-22T02:52:16.856Z,100958
2014-07-22T02:52:35.184Z,100949
2014-07-22T02:52:53.513Z,100947
2014-07-22T02:53:11.843Z,100949
2014-07-22T02:53:30.171Z,100952
2014-07-22T02:53:48.515Z,100952
2014-07-22T02:54:06.845Z,100955
2014-07-22T02:54:25.173Z,100955
2014-07-22T02:54:43.501Z,100964
2014-07-22T02:55:01.832Z,100964
2014-07-22T02:55:20.160Z,100952
2014-07-22T02:55:38.488Z,100955
2014-07-22T02:55:56.832Z,100961
2014-07-22T02:56:15.162Z,100958
2014-07-22T02:56:33.490Z,100952
2014-07-22T02:56:51.818Z,100961
2014-07-22T02:57:10.351Z,100961
2014-07-22T02:57:28.491Z,100964
2014-07-22T02:57:46.819Z,100964
2014-07-22T02:58:05.150Z,100958
2014-07-22T02:58:23.478Z,100955
2014-07-22T02:58:41.806Z,100955
2014-07-22T02:59:00.150Z,100961
2014-07-22T02:59:18.480Z,100966
2014-07-22T02:59:36.808Z,100964
2014-07-22T02:59:55.152Z,100963
2014-07-22T03:00:13.482Z,100966
2014-07-22T03:00:31.810Z,100963
2014-07-22T03:00:50.138Z,100960
2014-07-22T03:01:08.468Z,100958
2014-07-22T03:01:26.796Z,100972
2014-07-22T03:01:45.124Z,100966
2014-07-22T03:02:03.452Z,100966
2014-07-22T03:02:21.798Z,100961
2014-07-22T03:02:40.126Z,100964
2014-07-22T03:02:58.454Z,100966
2014-07-22T03:03:16.785Z,100966
2014-07-22T03:03:35.128Z,100958
2014-07-22T03:03:53.456Z,100952
2014-07-22T03:04:11.787Z,100955
2014-07-22T03:04:30.130Z,100958
2014-07-22T03:04:48.458Z,100958
2014-07-22T03:05:06.787Z,100972
2014-07-22T03:05:25.117Z,100969
2014-07-22T03:05:43.445Z,100969
2014-07-22T03:06:01.789Z,100966
2014-07-22T03:06:20.119Z,100966
2014-07-22T03:06:38.447Z,100958
2014-07-22T03:06:56.775Z,100966
2014-07-22T03:07:15.105Z,100972
2014-07-22T03:07:33.433Z,100966
2014-07-22T03:07:51.761Z,100966
2014-07-22T03:08:10.090Z,100972
2014-07-22T03:08:28.434Z,100978
2014-07-22T03:08:46.762Z,100963
2014-07-22T03:09:05.090Z,100981
2014-07-22T03:09:23.421Z,100969
2014-07-22T03:09:41.764Z,100975
2014-07-22T03:10:00.077Z,100975
2014-07-22T03:10:18.423Z,100972
2014-07-22T03:10:36.751Z,100978
2014-07-22T03:10:55.079Z,100978
2014-07-22T03:11:13.410Z,100975
2014-07-22T03:11:31.738Z,100980
2014-07-22T03:11:50.066Z,100983
2014-07-22T03:12:08.394Z,100981
2014-07-22T03:12:26.724Z,100975
2014-07-22T03:12:45.053Z,100977
2014-07-22T03:13:03.396Z,100977
2014-07-22T03:13:21.726Z,100977
2014-07-22T03:13:40.055Z,100980
2014-07-22T03:13:58.383Z,100980
2014-07-22T03:14:16.713Z,100980
2014-07-22T03:14:35.041Z,100983
2014-07-22T03:14:53.385Z,100988
2014-07-22T03:15:11.714Z,100980
2014-07-22T03:15:30.042Z,100983
2014-07-22T03:15:48.370Z,100983
2014-07-22T03:16:06.698Z,100985
2014-07-22T03:16:25.028Z,100980
2014-07-22T03:16:43.356Z,100985
2014-07-22T03:17:01.685Z,100980
2014-07-22T03:17:20.015Z,100988
2014-07-22T03:17:38.358Z,100983
2014-07-22T03:17:56.687Z,100983
2014-07-22T03:18:15.017Z,100978
2014-07-22T03:18:33.345Z,100985
2014-07-22T03:18:51.673Z,100994
2014-07-22T03:19:10.001Z,100983
2014-07-22T03:19:28.347Z,100988
2014-07-22T03:19:46.675Z,100978
2014-07-22T03:20:05.003Z,100991
2014-07-22T03:20:23.333Z,100988
2014-07-22T03:20:41.677Z,100994
2014-07-22T03:21:00.005Z,100991
2014-07-22T03:21:18.538Z,100988
2014-07-22T03:21:36.663Z,100999
2014-07-22T03:21:54.991Z,100991
2014-07-22T03:22:13.320Z,100991
2014-07-22T03:22:31.665Z,100988
2014-07-22T03:22:49.993Z,100997
2014-07-22T03:23:08.322Z,100999
2014-07-22T03:23:26.667Z,100997
2014-07-22T03:23:44.995Z,100994
2014-07-22T03:24:03.324Z,101000
2014-07-22T03:24:21.654Z,100997
2014-07-22T03:24:39.982Z,100997
2014-07-22T03:24:58.310Z,100997
2014-07-22T03:25:16.638Z,100994
2014-07-22T03:25:34.967Z,100997
2014-07-22T03:25:53.295Z,100999
2014-07-22T03:26:11.623Z,100994
2014-07-22T03:26:29.955Z,100997
2014-07-22T03:26:48.283Z,100993
2014-07-22T03:27:06.611Z,100991
2014-07-22T03:27:24.940Z,100999
2014-07-22T03:27:43.268Z,100999
2014-07-22T03:28:01.596Z,101002
2014-07-22T03:28:19.940Z,100999
2014-07-22T03:28:38.270Z,101005
2014-07-22T03:28:56.598Z,100999
2014-07-22T03:29:14.926Z,100996
2014-07-22T03:29:33.272Z,101002
2014-07-22T03:29:51.600Z,101013
2014-07-22T03:30:09.928Z,100996
2014-07-22T03:30:28.256Z,101008
2014-07-22T03:30:46.588Z,101002
2014-07-22T03:31:04.931Z,101002
2014-07-22T03:31:23.259Z,101002
2014-07-22T03:31:41.590Z,101005
2014-07-22T03:31:59.933Z,101002
2014-07-22T03:32:18.261Z,100996
2014-07-22T03:32:36.591Z,101002
2014-07-22T03:32:54.919Z,101002
2014-07-22T03:33:13.262Z,101008
2014-07-22T03:33:31.575Z,101008
2014-07-22T03:33:49.922Z,101005
2014-07-22T03:34:08.234Z,101002
2014-07-22T03:34:26.578Z,101011
2014-07-22T03:34:44.908Z,101008
2014-07-22T03:35:03.236Z,101020
2014-07-22T03:35:21.564Z,101005
2014-07-22T03:35:39.893Z,101011
2014-07-22T03:35:58.222Z,101011
2014-07-22T03:36:16.550Z,101011
2014-07-22T03:36:34.893Z,101017
2014-07-22T03:36:53.224Z,101008
2014-07-22T03:37:11.552Z,101017
2014-07-22T03:37:29.880Z,101020
2014-07-22T03:37:48.210Z,101014
2014-07-22T03:38:06.554Z,101005
2014-07-22T03:38:24.866Z,101017
2014-07-22T03:38:43.212Z,101017
2014-07-22T03:39:01.540Z,101025
2014-07-22T03:39:19.868Z,101011
2014-07-22T03:39:38.196Z,101005
2014-07-22T03:39:56.526Z,101011
2014-07-22T03:40:14.855Z,101017
2014-07-22T03:40:33.183Z,101011
2014-07-22T03:40:51.513Z,101014
2014-07-22T03:41:09.857Z,101014
2014-07-22T03:41:28.185Z,101017
2014-07-22T03:41:46.513Z,101014
2014-07-22T03:42:04.843Z,101013
2014-07-22T03:42:23.171Z,101008
2014-07-22T03:42:41.499Z,101002
2014-07-22T03:42:59.829Z,101019
2014-07-22T03:43:18.173Z,101019
2014-07-22T03:43:36.501Z,101019
2014-07-22T03:43:54.829Z,101022
2014-07-22T03:44:13.175Z,101010
2014-07-22T03:44:31.503Z,101013
2014-07-22T03:44:49.831Z,101018
2014-07-22T03:45:08.162Z,101004
2014-07-22T03:45:26.491Z,101015
2014-07-22T03:45:44.834Z,101013
2014-07-22T03:46:03.162Z,101019
2014-07-22T03:46:21.492Z,101019
2014-07-22T03:46:39.820Z,101016
2014-07-22T03:46:58.148Z,101025
2014-07-22T03:47:16.479Z,101019
2014-07-22T03:47:34.823Z,101025
2014-07-22T03:47:53.151Z,101019
2014-07-22T03:48:11.481Z,101021
2014-07-22T03:48:29.825Z,101024
2014-07-22T03:48:48.153Z,101024